sensor_id;sensor_type;location;lat;lon;timestamp;pressure;altitude;pressure_sealevel;temperature;humidity
55189;BME280;41069;52.192;5.398;2023-01-28T00:02:11;102998.78;;;18.44;50.60
55189;BME280;41069;52.192;5.398;2023-01-28T00:04:43;103001.59;;;18.44;50.48
55189;BME280;41069;52.192;5.398;2023-01-28T00:07:10;103001.22;;;18.42;50.67
55189;BME280;41069;52.192;5.398;2023-01-28T00:09:36;103002.00;;;18.42;50.68
55189;BME280;41069;52.192;5.398;2023-01-28T00:12:02;103007.19;;;18.40;50.41
55189;BME280;41069;52.192;5.398;2023-01-28T00:14:31;103012.00;;;18.40;50.70
55189;BME280;41069;52.192;5.398;2023-01-28T00:16:57;103011.22;;;18.39;50.38
55189;BME280;41069;52.192;5.398;2023-01-28T00:19:23;103011.22;;;18.39;50.38
55189;BME280;41069;52.192;5.398;2023-01-28T00:21:49;103007.22;;;18.37;50.45
55189;BME280;41069;52.192;5.398;2023-01-28T00:24:15;103016.84;;;18.36;50.50
55189;BME280;41069;52.192;5.398;2023-01-28T00:26:41;103018.84;;;18.35;50.63
55189;BME280;41069;52.192;5.398;2023-01-28T00:29:15;103008.03;;;18.34;50.19
55189;BME280;41069;52.192;5.398;2023-01-28T00:31:43;103010.84;;;18.34;50.40
55189;BME280;41069;52.192;5.398;2023-01-28T00:34:09;103010.84;;;18.34;50.26
55189;BME280;41069;52.192;5.398;2023-01-28T00:36:43;103007.63;;;18.32;50.26
55189;BME280;41069;52.192;5.398;2023-01-28T00:39:19;103008.06;;;18.30;50.18
55189;BME280;41069;52.192;5.398;2023-01-28T00:41:45;103000.84;;;18.29;50.32
55189;BME280;41069;52.192;5.398;2023-01-28T00:44:11;103004.81;;;18.28;50.01
55189;BME280;41069;52.192;5.398;2023-01-28T00:46:37;103004.44;;;18.26;50.21
55189;BME280;41069;52.192;5.398;2023-01-28T00:49:03;103010.84;;;18.27;50.05
55189;BME280;41069;52.192;5.398;2023-01-28T00:51:29;103010.84;;;18.27;50.10
55189;BME280;41069;52.192;5.398;2023-01-28T00:54:12;103010.44;;;18.25;50.17
55189;BME280;41069;52.192;5.398;2023-01-28T00:56:38;103010.44;;;18.25;49.94
55189;BME280;41069;52.192;5.398;2023-01-28T00:59:04;103003.25;;;18.24;50.09
55189;BME280;41069;52.192;5.398;2023-01-28T01:01:30;103003.25;;;18.24;50.02
55189;BME280;41069;52.192;5.398;2023-01-28T01:03:56;102994.44;;;18.22;49.74
55189;BME280;41069;52.192;5.398;2023-01-28T01:06:23;102997.25;;;18.22;49.78
55189;BME280;41069;52.192;5.398;2023-01-28T01:08:50;102986.03;;;18.22;49.88
55189;BME280;41069;52.192;5.398;2023-01-28T01:11:26;102990.03;;;18.21;50.11
55189;BME280;41069;52.192;5.398;2023-01-28T01:13:57;102979.63;;;18.18;49.92
55189;BME280;41069;52.192;5.398;2023-01-28T01:16:26;102988.41;;;18.16;49.91
55189;BME280;41069;52.192;5.398;2023-01-28T01:18:53;102992.03;;;18.16;49.90
55189;BME280;41069;52.192;5.398;2023-01-28T01:21:55;102994.03;;;18.16;49.79
55189;BME280;41069;52.192;5.398;2023-01-28T01:24:26;102993.22;;;18.15;50.08
55189;BME280;41069;52.192;5.398;2023-01-28T01:26:53;102985.22;;;18.14;49.70
55189;BME280;41069;52.192;5.398;2023-01-28T01:29:19;102994.84;;;18.13;49.88
55189;BME280;41069;52.192;5.398;2023-01-28T01:31:56;102996.84;;;18.12;49.53
55189;BME280;41069;52.192;5.398;2023-01-28T01:34:23;102995.25;;;18.11;49.77
55189;BME280;41069;52.192;5.398;2023-01-28T01:36:59;102997.25;;;18.11;49.79
55189;BME280;41069;52.192;5.398;2023-01-28T01:39:25;102997.25;;;18.11;49.76
55189;BME280;41069;52.192;5.398;2023-01-28T01:41:51;103007.28;;;18.08;49.49
55189;BME280;41069;52.192;5.398;2023-01-28T01:44:54;102998.88;;;18.08;49.64
55189;BME280;41069;52.192;5.398;2023-01-28T01:47:42;103004.88;;;18.07;49.69
55189;BME280;41069;52.192;5.398;2023-01-28T01:50:48;103019.72;;;18.07;49.57
55189;BME280;41069;52.192;5.398;2023-01-28T01:53:19;103016.50;;;18.05;49.57
55189;BME280;41069;52.192;5.398;2023-01-28T01:55:52;103018.47;;;18.05;49.50
55189;BME280;41069;52.192;5.398;2023-01-28T01:58:23;103020.50;;;18.04;49.73
55189;BME280;41069;52.192;5.398;2023-01-28T02:00:56;103013.69;;;18.02;49.50
55189;BME280;41069;52.192;5.398;2023-01-28T02:03:37;103016.50;;;18.02;49.67
55189;BME280;41069;52.192;5.398;2023-01-28T02:06:21;103013.69;;;18.02;49.52
55189;BME280;41069;52.192;5.398;2023-01-28T02:08:47;103026.09;;;18.01;49.48
55189;BME280;41069;52.192;5.398;2023-01-28T02:11:13;103021.69;;;18.00;49.51
55189;BME280;41069;52.192;5.398;2023-01-28T02:13:45;103019.69;;;18.00;49.53
55189;BME280;41069;52.192;5.398;2023-01-28T02:16:11;103021.69;;;18.00;49.67
55189;BME280;41069;52.192;5.398;2023-01-28T02:18:39;103019.31;;;17.98;49.67
55189;BME280;41069;52.192;5.398;2023-01-28T02:21:43;103018.50;;;17.98;49.35
55189;BME280;41069;52.192;5.398;2023-01-28T02:29:22;103027.72;;;17.95;49.35
55189;BME280;41069;52.192;5.398;2023-01-28T02:32:04;103024.94;;;17.95;49.23
55189;BME280;41069;52.192;5.398;2023-01-28T02:37:50;103026.94;;;17.94;49.37
55189;BME280;41069;52.192;5.398;2023-01-28T02:40:22;103032.09;;;17.92;49.49
55189;BME280;41069;52.192;5.398;2023-01-28T02:42:57;103034.91;;;17.92;49.48
55189;BME280;41069;52.192;5.398;2023-01-28T02:45:31;103016.91;;;17.90;49.45
55189;BME280;41069;52.192;5.398;2023-01-28T02:47:57;103032.91;;;17.89;49.62
55189;BME280;41069;52.192;5.398;2023-01-28T02:50:27;103033.72;;;17.90;49.40
55189;BME280;41069;52.192;5.398;2023-01-28T02:53:21;103041.34;;;17.89;49.25
55189;BME280;41069;52.192;5.398;2023-01-28T02:56:04;103030.53;;;17.88;49.24
55189;BME280;41069;52.192;5.398;2023-01-28T03:01:38;103019.72;;;17.86;49.32
55189;BME280;41069;52.192;5.398;2023-01-28T03:06:40;103011.72;;;17.84;49.27
55189;BME280;41069;52.192;5.398;2023-01-28T03:09:14;103022.91;;;17.84;49.23
55189;BME280;41069;52.192;5.398;2023-01-28T03:14:31;103012.91;;;17.83;49.23
55189;BME280;41069;52.192;5.398;2023-01-28T03:17:00;103022.53;;;17.82;49.17
55189;BME280;41069;52.192;5.398;2023-01-28T03:19:29;103009.72;;;17.81;49.12
55189;BME280;41069;52.192;5.398;2023-01-28T03:22:24;103016.50;;;17.80;49.08
55189;BME280;41069;52.192;5.398;2023-01-28T03:24:53;103021.31;;;17.80;48.75
55189;BME280;41069;52.192;5.398;2023-01-28T03:27:47;103022.50;;;17.79;49.12
55189;BME280;41069;52.192;5.398;2023-01-28T03:30:41;103018.91;;;17.78;49.26
55189;BME280;41069;52.192;5.398;2023-01-28T03:33:09;103025.31;;;17.79;49.25
55189;BME280;41069;52.192;5.398;2023-01-28T03:35:36;103020.91;;;17.78;49.02
55189;BME280;41069;52.192;5.398;2023-01-28T03:38:03;103028.50;;;17.77;49.19
55189;BME280;41069;52.192;5.398;2023-01-28T03:40:31;103021.31;;;17.76;49.27
55189;BME280;41069;52.192;5.398;2023-01-28T03:43:06;103016.91;;;17.75;49.14
55189;BME280;41069;52.192;5.398;2023-01-28T03:45:34;103020.13;;;17.74;49.21
55189;BME280;41069;52.192;5.398;2023-01-28T03:47:59;103016.50;;;17.73;49.17
55189;BME280;41069;52.192;5.398;2023-01-28T03:50:39;103019.31;;;17.73;49.13
55189;BME280;41069;52.192;5.398;2023-01-28T03:53:04;103028.94;;;17.72;49.15
55189;BME280;41069;52.192;5.398;2023-01-28T03:55:30;103029.31;;;17.71;49.29
55189;BME280;41069;52.192;5.398;2023-01-28T03:58:05;103028.53;;;17.70;48.94
55189;BME280;41069;52.192;5.398;2023-01-28T04:00:34;103021.31;;;17.69;49.08
55189;BME280;41069;52.192;5.398;2023-01-28T04:03:00;103031.34;;;17.70;49.00
55189;BME280;41069;52.192;5.398;2023-01-28T04:05:34;103026.94;;;17.69;48.96
55189;BME280;41069;52.192;5.398;2023-01-28T04:08:02;103029.72;;;17.69;48.96
55189;BME280;41069;52.192;5.398;2023-01-28T04:10:30;103031.72;;;17.69;49.14
55189;BME280;41069;52.192;5.398;2023-01-28T04:12:56;103028.47;;;17.67;48.97
55189;BME280;41069;52.192;5.398;2023-01-28T04:15:22;103039.69;;;17.67;48.84
55189;BME280;41069;52.192;5.398;2023-01-28T04:17:48;103038.09;;;17.66;48.98
55189;BME280;41069;52.192;5.398;2023-01-28T04:20:14;103032.88;;;17.64;49.10
55189;BME280;41069;52.192;5.398;2023-01-28T04:22:40;103044.09;;;17.64;49.03
55189;BME280;41069;52.192;5.398;2023-01-28T04:25:06;103043.28;;;17.64;48.97
55189;BME280;41069;52.192;5.398;2023-01-28T04:27:32;103048.09;;;17.63;48.94
55189;BME280;41069;52.192;5.398;2023-01-28T04:30:01;103062.09;;;17.63;48.89
55189;BME280;41069;52.192;5.398;2023-01-28T04:32:27;103056.50;;;17.63;48.89
55189;BME280;41069;52.192;5.398;2023-01-28T04:34:53;103049.28;;;17.62;48.80
55189;BME280;41069;52.192;5.398;2023-01-28T04:37:24;103059.72;;;17.62;49.06
55189;BME280;41069;52.192;5.398;2023-01-28T04:39:50;103066.50;;;17.61;48.81
55189;BME280;41069;52.192;5.398;2023-01-28T04:42:18;103057.31;;;17.60;49.00
55189;BME280;41069;52.192;5.398;2023-01-28T04:44:56;103053.69;;;17.60;48.84
55189;BME280;41069;52.192;5.398;2023-01-28T04:47:22;103048.09;;;17.60;48.88
55189;BME280;41069;52.192;5.398;2023-01-28T04:49:48;103055.72;;;17.59;49.00
55189;BME280;41069;52.192;5.398;2023-01-28T04:52:33;103051.69;;;17.56;48.83
55189;BME280;41069;52.192;5.398;2023-01-28T04:54:59;103048.88;;;17.56;48.76
55189;BME280;41069;52.192;5.398;2023-01-28T04:57:35;103036.06;;;17.55;48.74
55189;BME280;41069;52.192;5.398;2023-01-28T05:00:01;103033.25;;;17.55;48.85
55189;BME280;41069;52.192;5.398;2023-01-28T05:02:27;103038.06;;;17.55;48.98
55189;BME280;41069;52.192;5.398;2023-01-28T05:04:53;103035.66;;;17.53;48.78
55189;BME280;41069;52.192;5.398;2023-01-28T05:07:24;103040.47;;;17.53;48.88
55189;BME280;41069;52.192;5.398;2023-01-28T05:09:58;103042.47;;;17.52;48.79
55189;BME280;41069;52.192;5.398;2023-01-28T05:12:24;103032.47;;;17.51;48.63
55189;BME280;41069;52.192;5.398;2023-01-28T05:14:50;103036.06;;;17.52;48.72
55189;BME280;41069;52.192;5.398;2023-01-28T05:17:26;103031.66;;;17.51;48.81
55189;BME280;41069;52.192;5.398;2023-01-28T05:19:52;103031.66;;;17.51;48.80
55189;BME280;41069;52.192;5.398;2023-01-28T05:22:22;103030.88;;;17.50;48.80
55189;BME280;41069;52.192;5.398;2023-01-28T05:24:48;103034.06;;;17.49;48.64
55189;BME280;41069;52.192;5.398;2023-01-28T05:27:14;103036.06;;;17.48;48.75
55189;BME280;41069;52.192;5.398;2023-01-28T05:29:48;103038.88;;;17.48;48.75
55189;BME280;41069;52.192;5.398;2023-01-28T05:32:16;103042.47;;;17.49;48.65
55189;BME280;41069;52.192;5.398;2023-01-28T05:34:54;103050.09;;;17.48;48.79
55189;BME280;41069;52.192;5.398;2023-01-28T05:37:20;103042.47;;;17.49;48.65
55189;BME280;41069;52.192;5.398;2023-01-28T05:39:46;103042.06;;;17.47;48.74
55189;BME280;41069;52.192;5.398;2023-01-28T05:42:37;103042.06;;;17.47;48.75
55189;BME280;41069;52.192;5.398;2023-01-28T05:45:15;103044.06;;;17.46;48.74
55189;BME280;41069;52.192;5.398;2023-01-28T05:47:45;103052.06;;;17.44;48.82
55189;BME280;41069;52.192;5.398;2023-01-28T05:50:12;103033.66;;;17.43;48.84
55189;BME280;41069;52.192;5.398;2023-01-28T05:52:41;103042.84;;;17.44;48.76
55189;BME280;41069;52.192;5.398;2023-01-28T05:55:07;103042.06;;;17.43;48.61
55189;BME280;41069;52.192;5.398;2023-01-28T05:57:33;103040.44;;;17.42;48.67
55189;BME280;41069;52.192;5.398;2023-01-28T05:59:59;103045.25;;;17.42;48.61
55189;BME280;41069;52.192;5.398;2023-01-28T06:02:31;103039.25;;;17.40;48.65
55189;BME280;41069;52.192;5.398;2023-01-28T06:05:01;103042.06;;;17.40;48.71
55189;BME280;41069;52.192;5.398;2023-01-28T06:07:27;103040.44;;;17.39;48.81
55189;BME280;41069;52.192;5.398;2023-01-28T06:09:53;103046.06;;;17.39;48.72
55189;BME280;41069;52.192;5.398;2023-01-28T06:12:19;103047.66;;;17.40;48.55
55189;BME280;41069;52.192;5.398;2023-01-28T06:14:45;103040.06;;;17.37;48.59
55189;BME280;41069;52.192;5.398;2023-01-28T06:17:11;103051.25;;;17.37;48.65
55189;BME280;41069;52.192;5.398;2023-01-28T06:19:37;103040.84;;;17.37;48.43
55189;BME280;41069;52.192;5.398;2023-01-28T06:22:03;103044.06;;;17.36;48.73
55189;BME280;41069;52.192;5.398;2023-01-28T06:24:29;103039.25;;;17.36;48.66
55189;BME280;41069;52.192;5.398;2023-01-28T06:26:54;103041.25;;;17.36;48.50
55189;BME280;41069;52.192;5.398;2023-01-28T06:29:20;103040.47;;;17.35;48.54
55189;BME280;41069;52.192;5.398;2023-01-28T06:31:50;103040.47;;;17.35;48.73
55189;BME280;41069;52.192;5.398;2023-01-28T06:34:17;103053.66;;;17.35;48.50
55189;BME280;41069;52.192;5.398;2023-01-28T06:36:43;103064.06;;;17.34;48.45
55189;BME280;41069;52.192;5.398;2023-01-28T06:39:09;103070.06;;;17.33;48.61
55189;BME280;41069;52.192;5.398;2023-01-28T06:41:35;103064.47;;;17.33;48.60
55189;BME280;41069;52.192;5.398;2023-01-28T06:44:01;103062.03;;;17.31;48.61
55189;BME280;41069;52.192;5.398;2023-01-28T06:47:02;103075.22;;;17.31;48.66
55189;BME280;41069;52.192;5.398;2023-01-28T06:49:30;103071.63;;;17.30;48.49
55189;BME280;41069;52.192;5.398;2023-01-28T06:51:59;103065.22;;;17.29;48.64
55189;BME280;41069;52.192;5.398;2023-01-28T06:54:25;103067.22;;;17.29;48.40
55189;BME280;41069;52.192;5.398;2023-01-28T06:56:53;103075.63;;;17.29;48.65
55189;BME280;41069;52.192;5.398;2023-01-28T06:59:19;103074.84;;;17.28;48.54
55189;BME280;41069;52.192;5.398;2023-01-28T07:01:45;103081.63;;;17.27;48.77
55189;BME280;41069;52.192;5.398;2023-01-28T07:04:11;103076.03;;;17.27;48.53
55189;BME280;41069;52.192;5.398;2023-01-28T07:06:36;103073.22;;;17.27;48.53
55189;BME280;41069;52.192;5.398;2023-01-28T07:09:02;103074.81;;;17.21;48.54
55189;BME280;41069;52.192;5.398;2023-01-28T07:11:28;103078.44;;;17.25;48.63
55189;BME280;41069;52.192;5.398;2023-01-28T07:13:54;103069.63;;;17.27;48.56
55189;BME280;41069;52.192;5.398;2023-01-28T07:16:22;103087.63;;;17.26;48.46
55189;BME280;41069;52.192;5.398;2023-01-28T07:18:48;103082.84;;;17.30;48.75
55189;BME280;41069;52.192;5.398;2023-01-28T07:21:14;103086.47;;;17.34;48.60
55189;BME280;41069;52.192;5.398;2023-01-28T07:23:46;103086.06;;;17.39;48.80
55189;BME280;41069;52.192;5.398;2023-01-28T07:26:11;103085.28;;;17.49;48.69
55189;BME280;41069;52.192;5.398;2023-01-28T07:28:40;103079.28;;;17.54;48.88
55189;BME280;41069;52.192;5.398;2023-01-28T07:31:09;103082.91;;;17.62;48.90
55189;BME280;41069;52.192;5.398;2023-01-28T07:33:35;103089.31;;;17.66;48.90
55189;BME280;41069;52.192;5.398;2023-01-28T07:36:06;103098.19;;;17.72;49.05
55189;BME280;41069;52.192;5.398;2023-01-28T07:38:35;103092.19;;;17.73;49.23
55189;BME280;41069;52.192;5.398;2023-01-28T07:41:05;103102.97;;;17.78;49.47
55189;BME280;41069;52.192;5.398;2023-01-28T07:43:37;103103.78;;;17.75;49.34
55189;BME280;41069;52.192;5.398;2023-01-28T07:46:05;103102.19;;;17.78;49.34
55189;BME280;41069;52.192;5.398;2023-01-28T07:48:36;103105.41;;;17.83;49.37
55189;BME280;41069;52.192;5.398;2023-01-28T07:51:12;103106.19;;;17.88;49.63
55189;BME280;41069;52.192;5.398;2023-01-28T07:53:41;103094.59;;;17.93;49.72
55189;BME280;41069;52.192;5.398;2023-01-28T07:56:06;103090.97;;;17.92;49.79
55189;BME280;41069;52.192;5.398;2023-01-28T07:58:32;103097.81;;;17.98;49.90
55189;BME280;41069;52.192;5.398;2023-01-28T08:01:04;103103.41;;;17.98;49.90
55189;BME280;41069;52.192;5.398;2023-01-28T08:03:30;103103.00;;;18.00;49.89
55189;BME280;41069;52.192;5.398;2023-01-28T08:05:56;103110.63;;;17.99;50.06
55189;BME280;41069;52.192;5.398;2023-01-28T08:08:23;103103.41;;;18.02;49.96
55189;BME280;41069;52.192;5.398;2023-01-28T08:10:49;103121.03;;;17.99;50.07
55189;BME280;41069;52.192;5.398;2023-01-28T08:13:16;103107.00;;;17.92;49.90
55189;BME280;41069;52.192;5.398;2023-01-28T08:15:43;103112.63;;;17.99;49.73
55189;BME280;41069;52.192;5.398;2023-01-28T08:18:11;103125.03;;;17.98;50.18
55189;BME280;41069;52.192;5.398;2023-01-28T08:20:37;103122.25;;;17.98;50.03
55189;BME280;41069;52.192;5.398;2023-01-28T08:23:30;103117.03;;;18.10;49.95
55189;BME280;41069;52.192;5.398;2023-01-28T08:25:57;103123.47;;;18.18;49.78
55189;BME280;41069;52.192;5.398;2023-01-28T08:28:23;103115.44;;;18.24;49.72
55189;BME280;41069;52.192;5.398;2023-01-28T08:30:49;103125.06;;;18.23;49.62
55189;BME280;41069;52.192;5.398;2023-01-28T08:33:16;103117.44;;;18.12;49.43
55189;BME280;41069;52.192;5.398;2023-01-28T08:35:43;103118.63;;;18.15;49.14
55189;BME280;41069;52.192;5.398;2023-01-28T08:38:10;103129.44;;;18.13;49.28
55189;BME280;41069;52.192;5.398;2023-01-28T08:40:37;103128.25;;;18.10;49.30
55189;BME280;41069;52.192;5.398;2023-01-28T08:43:03;103129.84;;;18.08;49.07
55189;BME280;41069;52.192;5.398;2023-01-28T08:45:29;103133.88;;;18.07;48.92
55189;BME280;41069;52.192;5.398;2023-01-28T08:48:00;103143.06;;;18.04;49.03
55189;BME280;41069;52.192;5.398;2023-01-28T08:50:30;103145.06;;;18.03;48.95
55189;BME280;41069;52.192;5.398;2023-01-28T08:53:08;103144.66;;;18.01;49.03
55189;BME280;41069;52.192;5.398;2023-01-28T08:55:35;103147.06;;;17.99;48.81
55189;BME280;41069;52.192;5.398;2023-01-28T08:58:02;103144.66;;;17.98;48.79
55189;BME280;41069;52.192;5.398;2023-01-28T09:00:35;103151.88;;;17.95;49.23
55189;BME280;41069;52.192;5.398;2023-01-28T09:03:01;103151.09;;;17.95;48.86
55189;BME280;41069;52.192;5.398;2023-01-28T09:05:27;103160.69;;;17.94;48.72
55189;BME280;41069;52.192;5.398;2023-01-28T09:07:55;103144.66;;;17.91;49.08
55189;BME280;41069;52.192;5.398;2023-01-28T09:10:23;103151.06;;;17.91;49.01
55189;BME280;41069;52.192;5.398;2023-01-28T09:12:49;103158.66;;;17.91;48.73
55189;BME280;41069;52.192;5.398;2023-01-28T09:15:20;103157.88;;;17.90;48.72
55189;BME280;41069;52.192;5.398;2023-01-28T09:17:46;103162.66;;;17.90;48.64
55189;BME280;41069;52.192;5.398;2023-01-28T09:20:12;103165.88;;;17.88;48.59
55189;BME280;41069;52.192;5.398;2023-01-28T09:22:38;103160.25;;;17.88;48.65
55189;BME280;41069;52.192;5.398;2023-01-28T09:25:04;103177.09;;;17.88;48.59
55189;BME280;41069;52.192;5.398;2023-01-28T09:27:40;103181.50;;;17.85;48.59
55189;BME280;41069;52.192;5.398;2023-01-28T09:30:06;103181.50;;;17.85;48.66
55189;BME280;41069;52.192;5.398;2023-01-28T09:32:32;103179.09;;;17.84;48.31
55189;BME280;41069;52.192;5.398;2023-01-28T09:34:58;103179.88;;;17.84;48.38
55189;BME280;41069;52.192;5.398;2023-01-28T09:37:57;103195.09;;;17.87;48.54
55189;BME280;41069;52.192;5.398;2023-01-28T09:40:43;103187.09;;;17.89;48.47
55189;BME280;41069;52.192;5.398;2023-01-28T09:45:58;103185.94;;;17.94;48.30
55189;BME280;41069;52.192;5.398;2023-01-28T09:48:41;103176.31;;;17.95;47.99
55189;BME280;41069;52.192;5.398;2023-01-28T09:51:28;103177.09;;;17.99;48.04
55189;BME280;41069;52.192;5.398;2023-01-28T09:53:59;103173.91;;;18.04;48.14
55189;BME280;41069;52.192;5.398;2023-01-28T09:56:44;103174.34;;;18.06;47.95
55189;BME280;41069;52.192;5.398;2023-01-28T09:59:19;103192.31;;;18.05;47.76
55189;BME280;41069;52.192;5.398;2023-01-28T10:11:11;103192.34;;;18.15;48.39
55189;BME280;41069;52.192;5.398;2023-01-28T10:14:09;103189.94;;;18.28;48.31
55189;BME280;41069;52.192;5.398;2023-01-28T10:17:30;103188.78;;;18.29;48.16
55189;BME280;41069;52.192;5.398;2023-01-28T10:19:57;103186.75;;;18.33;47.72
55189;BME280;41069;52.192;5.398;2023-01-28T10:25:53;103177.97;;;18.42;47.89
55189;BME280;41069;52.192;5.398;2023-01-28T10:28:33;103175.94;;;18.46;47.87
55189;BME280;41069;52.192;5.398;2023-01-28T10:31:19;103171.13;;;18.47;47.96
55189;BME280;41069;52.192;5.398;2023-01-28T10:33:46;103174.75;;;18.43;48.00
55189;BME280;41069;52.192;5.398;2023-01-28T10:37:07;103177.56;;;18.54;47.98
55189;BME280;41069;52.192;5.398;2023-01-28T10:40:11;103167.91;;;18.52;47.97
55189;BME280;41069;52.192;5.398;2023-01-28T10:42:41;103168.31;;;18.47;48.04
55189;BME280;41069;52.192;5.398;2023-01-28T10:45:21;103165.94;;;18.45;48.04
55189;BME280;41069;52.192;5.398;2023-01-28T10:48:20;103159.13;;;18.42;47.96
55189;BME280;41069;52.192;5.398;2023-01-28T10:50:56;103158.28;;;18.53;47.71
55189;BME280;41069;52.192;5.398;2023-01-28T10:53:42;103154.28;;;18.50;47.77
55189;BME280;41069;52.192;5.398;2023-01-28T10:56:10;103155.91;;;18.48;47.85
55189;BME280;41069;52.192;5.398;2023-01-28T10:58:59;103140.66;;;18.45;47.83
55189;BME280;41069;52.192;5.398;2023-01-28T11:07:19;103110.59;;;18.45;47.47
55189;BME280;41069;52.192;5.398;2023-01-28T11:09:50;103106.19;;;18.44;47.45
55189;BME280;41069;52.192;5.398;2023-01-28T11:12:19;103101.81;;;18.43;47.66
55189;BME280;41069;52.192;5.398;2023-01-28T11:15:03;103100.59;;;18.44;47.48
55189;BME280;41069;52.192;5.398;2023-01-28T11:17:32;103090.56;;;18.43;47.56
55189;BME280;41069;52.192;5.398;2023-01-28T11:20:18;103083.38;;;18.42;47.50
55189;BME280;41069;52.192;5.398;2023-01-28T11:22:54;103074.16;;;18.42;47.44
55189;BME280;41069;52.192;5.398;2023-01-28T11:25:48;103081.78;;;18.41;47.28
55189;BME280;41069;52.192;5.398;2023-01-28T11:28:32;103064.94;;;18.41;47.24
55189;BME280;41069;52.192;5.398;2023-01-28T11:31:01;103066.13;;;18.37;47.35
55189;BME280;41069;52.192;5.398;2023-01-28T11:39:24;103046.50;;;18.37;47.26
55189;BME280;41069;52.192;5.398;2023-01-28T11:41:51;103040.09;;;18.36;47.35
55189;BME280;41069;52.192;5.398;2023-01-28T11:44:25;103044.88;;;18.36;47.19
55189;BME280;41069;52.192;5.398;2023-01-28T11:56:27;103077.34;;;18.26;47.45
55189;BME280;41069;52.192;5.398;2023-01-28T11:59:10;103089.78;;;18.22;47.36
55189;BME280;41069;52.192;5.398;2023-01-28T12:21:04;103094.19;;;18.12;47.64
55189;BME280;41069;52.192;5.398;2023-01-28T12:30:01;103083.78;;;18.12;47.79
55189;BME280;41069;52.192;5.398;2023-01-28T12:32:54;103082.56;;;18.13;47.83
55189;BME280;41069;52.192;5.398;2023-01-28T12:41:39;103072.56;;;18.16;47.63
55189;BME280;41069;52.192;5.398;2023-01-28T12:44:12;103073.34;;;18.16;47.60
55189;BME280;41069;52.192;5.398;2023-01-28T12:47:19;103058.53;;;18.16;47.71
55189;BME280;41069;52.192;5.398;2023-01-28T12:49:54;103045.72;;;18.15;47.75
55189;BME280;41069;52.192;5.398;2023-01-28T12:52:44;103042.50;;;18.16;47.83
55189;BME280;41069;52.192;5.398;2023-01-28T12:55:24;103034.50;;;18.15;47.78
55189;BME280;41069;52.192;5.398;2023-01-28T12:58:00;103022.50;;;18.18;47.45
55189;BME280;41069;52.192;5.398;2023-01-28T13:00:32;103021.69;;;18.18;47.76
55189;BME280;41069;52.192;5.398;2023-01-28T13:03:24;103015.25;;;18.17;47.52
55189;BME280;41069;52.192;5.398;2023-01-28T13:06:01;102998.03;;;18.15;47.77
55189;BME280;41069;52.192;5.398;2023-01-28T13:08:31;102995.25;;;18.15;47.62
55189;BME280;41069;52.192;5.398;2023-01-28T13:11:00;102994.03;;;18.16;47.71
55189;BME280;41069;52.192;5.398;2023-01-28T13:15:53;103003.25;;;18.16;47.91
55189;BME280;41069;52.192;5.398;2023-01-28T13:21:08;103008.06;;;18.16;47.57
55189;BME280;41069;52.192;5.398;2023-01-28T13:23:47;102995.66;;;18.13;47.78
55189;BME280;41069;52.192;5.398;2023-01-28T13:28:52;102997.63;;;18.16;47.75
55189;BME280;41069;52.192;5.398;2023-01-28T13:31:20;102989.63;;;18.15;47.75
55189;BME280;41069;52.192;5.398;2023-01-28T13:36:45;102993.22;;;18.15;47.92
55189;BME280;41069;52.192;5.398;2023-01-28T13:39:18;102994.44;;;18.14;47.71
55189;BME280;41069;52.192;5.398;2023-01-28T13:42:19;102999.25;;;18.14;47.56
55189;BME280;41069;52.192;5.398;2023-01-28T13:44:51;102995.66;;;18.13;47.80
55189;BME280;41069;52.192;5.398;2023-01-28T13:47:39;102996.03;;;18.15;47.76
55189;BME280;41069;52.192;5.398;2023-01-28T13:50:14;102996.44;;;18.14;47.62
55189;BME280;41069;52.192;5.398;2023-01-28T13:53:06;102985.25;;;18.10;47.72
55189;BME280;41069;52.192;5.398;2023-01-28T13:55:43;102992.47;;;18.08;48.05
55189;BME280;41069;52.192;5.398;2023-01-28T14:04:28;103007.28;;;18.08;47.98
55189;BME280;41069;52.192;5.398;2023-01-28T14:07:39;103030.09;;;18.10;47.92
55189;BME280;41069;52.192;5.398;2023-01-28T14:13:01;103038.91;;;18.16;47.70
55189;BME280;41069;52.192;5.398;2023-01-28T14:15:43;103042.50;;;18.16;47.77
55189;BME280;41069;52.192;5.398;2023-01-28T14:18:22;103036.09;;;18.16;48.05
55189;BME280;41069;52.192;5.398;2023-01-28T14:20:50;103023.28;;;18.15;47.72
55189;BME280;41069;52.192;5.398;2023-01-28T14:23:20;103016.88;;;18.14;47.77
55189;BME280;41069;52.192;5.398;2023-01-28T14:31:26;103006.88;;;18.10;47.87
55189;BME280;41069;52.192;5.398;2023-01-28T14:36:42;103008.88;;;18.09;47.90
55189;BME280;41069;52.192;5.398;2023-01-28T14:39:19;103006.06;;;18.09;48.32
55189;BME280;41069;52.192;5.398;2023-01-28T14:41:48;103001.69;;;18.08;48.12
55189;BME280;41069;52.192;5.398;2023-01-28T14:44:33;103005.28;;;18.09;48.02
55189;BME280;41069;52.192;5.398;2023-01-28T14:52:56;103006.47;;;18.04;48.18
55189;BME280;41069;52.192;5.398;2023-01-28T14:58:20;103020.91;;;18.06;48.29
55189;BME280;41069;52.192;5.398;2023-01-28T15:00:55;103020.50;;;18.08;48.18
55189;BME280;41069;52.192;5.398;2023-01-28T15:03:21;103025.31;;;18.07;47.96
55189;BME280;41069;52.192;5.398;2023-01-28T15:05:47;103030.50;;;18.09;47.86
55189;BME280;41069;52.192;5.398;2023-01-28T15:08:20;103024.91;;;18.09;48.10
55189;BME280;41069;52.192;5.398;2023-01-28T15:10:47;103026.91;;;18.08;47.76
55189;BME280;41069;52.192;5.398;2023-01-28T15:13:20;103020.91;;;18.10;47.97
55189;BME280;41069;52.192;5.398;2023-01-28T15:15:50;103038.94;;;18.09;48.00
55189;BME280;41069;52.192;5.398;2023-01-28T15:18:18;103053.75;;;18.09;47.90
55189;BME280;41069;52.192;5.398;2023-01-28T15:20:47;103044.13;;;18.07;47.82